createdAt,value
2022-10-16T00:00:14.011Z,0
2022-10-16T00:01:14.807Z,0
2022-10-16T00:02:15.189Z,0
2022-10-16T00:03:15.029Z,0
2022-10-16T00:04:14.777Z,0
2022-10-16T00:05:14.468Z,0
2022-10-16T00:06:14.463Z,0
2022-10-16T00:07:14.769Z,0
2022-10-16T00:08:14.477Z,0
2022-10-16T00:09:14.518Z,0
2022-10-16T00:10:14.722Z,0
2022-10-16T00:11:14.185Z,0
2022-10-16T00:12:14.223Z,0
2022-10-16T00:13:14.824Z,0
2022-10-16T00:14:14.939Z,0
2022-10-16T00:15:14.645Z,0
2022-10-16T00:16:14.391Z,0
2022-10-16T00:17:14.932Z,0
2022-10-16T00:18:14.388Z,0
2022-10-16T00:19:14.096Z,0
2022-10-16T00:20:14.702Z,0
2022-10-16T00:21:14.343Z,0
2022-10-16T00:22:14.326Z,0
2022-10-16T00:23:14.054Z,0
2022-10-16T00:24:14.311Z,0
2022-10-16T00:25:14.553Z,0
2022-10-16T00:26:14.543Z,0
2022-10-16T00:27:14.542Z,0
2022-10-16T00:28:14.536Z,0
2022-10-16T00:29:14.656Z,0
2022-10-16T00:30:14.324Z,0
2022-10-16T00:31:14.001Z,0
2022-10-16T00:32:13.985Z,0
2022-10-16T00:33:14.278Z,0
2022-10-16T00:34:14.767Z,0
2022-10-16T00:35:14.744Z,0
2022-10-16T00:36:14.517Z,0
2022-10-16T00:37:14.451Z,0
2022-10-16T00:38:14.190Z,0
2022-10-16T00:39:13.689Z,0
2022-10-16T00:40:14.705Z,0
2022-10-16T00:41:14.200Z,0
2022-10-16T00:42:13.657Z,0
2022-10-16T00:43:14.427Z,0
2022-10-16T00:44:14.145Z,0
2022-10-16T00:45:13.867Z,0
2022-10-16T00:46:14.398Z,0
2022-10-16T00:47:14.628Z,0
2022-10-16T00:48:14.128Z,0
2022-10-16T00:49:14.691Z,0
2022-10-16T00:50:14.381Z,0
2022-10-16T00:51:13.830Z,0
2022-10-16T00:52:14.127Z,0
2022-10-16T00:53:14.347Z,0
2022-10-16T00:54:13.547Z,0
2022-10-16T00:55:14.557Z,0
2022-10-16T00:56:14.565Z,0
2022-10-16T00:58:14.536Z,0
2022-10-16T00:59:14.035Z,0
2022-10-16T01:00:14.265Z,0
2022-10-16T01:01:14.790Z,0
2022-10-16T01:02:14.034Z,0
2022-10-16T01:03:13.987Z,0
2022-10-16T01:04:14.225Z,0
2022-10-16T01:05:14.522Z,0
2022-10-16T01:06:14.639Z,0
2022-10-16T01:07:14.469Z,0
2022-10-16T01:08:14.251Z,0
2022-10-16T01:09:13.930Z,0
2022-10-16T01:10:14.444Z,0
2022-10-16T01:11:14.208Z,0
2022-10-16T01:12:13.649Z,0
2022-10-16T01:13:13.916Z,0
2022-10-16T01:14:14.146Z,0
2022-10-16T01:15:13.891Z,0
2022-10-16T01:16:14.396Z,0
2022-10-16T01:17:14.122Z,0
2022-10-16T01:18:13.852Z,0
2022-10-16T01:19:13.586Z,0
2022-10-16T01:20:13.961Z,0
2022-10-16T01:21:13.881Z,0
2022-10-16T01:22:14.351Z,0
2022-10-16T01:23:13.547Z,0
2022-10-16T01:24:14.135Z,0
2022-10-16T01:25:14.066Z,0
2022-10-16T01:26:13.554Z,0
2022-10-16T01:27:14.034Z,0
2022-10-16T01:28:13.267Z,0
2022-10-16T01:29:13.611Z,0
2022-10-16T01:30:13.766Z,0
2022-10-16T01:31:13.481Z,0
2022-10-16T01:32:13.738Z,0
2022-10-16T01:33:13.742Z,0
2022-10-16T01:34:46.055Z,0
2022-10-16T01:35:13.978Z,0
2022-10-16T01:36:13.956Z,0
2022-10-16T01:37:14.252Z,0
2022-10-16T01:38:13.707Z,0
2022-10-16T01:39:13.948Z,0
2022-10-16T01:40:14.215Z,0
2022-10-16T01:41:13.653Z,0
2022-10-16T01:42:13.388Z,0
2022-10-16T01:43:13.914Z,0
2022-10-16T01:44:13.643Z,0
2022-10-16T01:45:13.625Z,0
2022-10-16T01:46:13.099Z,0
2022-10-16T01:47:14.141Z,0
2022-10-16T01:48:13.629Z,0
2022-10-16T01:49:13.854Z,0
2022-10-16T01:50:13.574Z,0
2022-10-16T01:51:13.573Z,0
2022-10-16T01:52:13.600Z,0
2022-10-16T01:53:13.866Z,0
2022-10-16T01:54:14.078Z,0
2022-10-16T01:55:14.087Z,0
2022-10-16T01:56:14.101Z,0
2022-10-16T01:57:13.790Z,0
2022-10-16T01:58:13.510Z,0
2022-10-16T01:59:14.023Z,0
2022-10-16T02:00:13.249Z,0
2022-10-16T02:01:14.159Z,0
2022-10-16T02:02:13.745Z,0
2022-10-16T02:03:13.473Z,0
2022-10-16T02:04:13.208Z,0
2022-10-16T02:05:13.233Z,0
2022-10-16T02:06:13.442Z,0
2022-10-16T02:07:13.435Z,0
2022-10-16T02:08:15.432Z,0
2022-10-16T02:09:13.721Z,0
2022-10-16T02:10:13.702Z,0
2022-10-16T02:11:13.416Z,0
2022-10-16T02:12:13.708Z,0
2022-10-16T02:13:12.888Z,0
2022-10-16T02:14:13.385Z,0
2022-10-16T02:15:13.893Z,0
2022-10-16T02:16:13.622Z,0
2022-10-16T02:17:13.393Z,0
2022-10-16T02:18:13.350Z,0
2022-10-16T02:19:13.596Z,0
2022-10-16T02:20:13.717Z,0
2022-10-16T02:21:13.464Z,0
2022-10-16T02:22:13.592Z,0
2022-10-16T02:23:13.300Z,0
2022-10-16T02:24:13.360Z,0
2022-10-16T02:25:13.322Z,0
2022-10-16T02:26:13.562Z,0
2022-10-16T02:27:13.783Z,0
2022-10-16T02:28:13.572Z,0
2022-10-16T02:29:13.520Z,0
2022-10-16T02:30:13.520Z,0
2022-10-16T02:31:12.992Z,0
2022-10-16T02:32:13.237Z,0
2022-10-16T02:33:13.646Z,0
2022-10-16T02:34:12.954Z,0
2022-10-16T02:35:13.218Z,0
2022-10-16T02:36:13.230Z,0
2022-10-16T02:37:13.707Z,0
2022-10-16T02:38:13.105Z,0
2022-10-16T02:39:13.165Z,0
2022-10-16T02:40:13.470Z,0
2022-10-16T02:41:12.929Z,0
2022-10-16T02:42:13.433Z,0
2022-10-16T02:43:12.619Z,0
2022-10-16T02:44:13.477Z,0
2022-10-16T02:45:13.125Z,0
2022-10-16T02:46:12.607Z,0
2022-10-16T02:48:14.032Z,0
2022-10-16T02:49:13.783Z,0
2022-10-16T02:50:14.031Z,0
2022-10-16T02:51:13.242Z,0
2022-10-16T02:52:13.758Z,0
2022-10-16T02:53:13.735Z,0
2022-10-16T02:54:14.010Z,0
2022-10-16T02:55:13.725Z,0
2022-10-16T02:56:13.996Z,0
2022-10-16T02:57:13.507Z,0
2022-10-16T02:58:13.994Z,0
2022-10-16T02:59:13.461Z,0
2022-10-16T03:00:13.978Z,0
2022-10-16T03:01:14.194Z,0
2022-10-16T03:02:13.668Z,0
2022-10-16T03:03:13.396Z,0
2022-10-16T03:04:13.386Z,0
2022-10-16T03:05:13.490Z,0
2022-10-16T03:06:13.371Z,0
2022-10-16T03:07:13.641Z,0
2022-10-16T03:08:13.641Z,0
2022-10-16T03:09:13.140Z,0
2022-10-16T03:10:13.836Z,0
2022-10-16T03:11:13.825Z,0
2022-10-16T03:12:14.115Z,0
2022-10-16T03:13:14.083Z,0
2022-10-16T03:14:13.825Z,0
2022-10-16T03:15:13.547Z,0
2022-10-16T03:16:13.836Z,0
2022-10-16T03:17:13.002Z,0
2022-10-16T03:18:14.023Z,0
2022-10-16T03:19:13.254Z,0
2022-10-16T03:20:13.525Z,0
2022-10-16T03:21:13.487Z,0
2022-10-16T03:22:13.741Z,0
2022-10-16T03:23:13.230Z,0
2022-10-16T03:24:13.460Z,0
2022-10-16T03:25:13.221Z,0
2022-10-16T03:26:13.710Z,0
2022-10-16T03:27:13.691Z,0
2022-10-16T03:28:13.441Z,0
2022-10-16T03:29:13.676Z,0
2022-10-16T03:30:13.454Z,0
2022-10-16T03:31:13.169Z,0
2022-10-16T03:32:13.946Z,0
2022-10-16T03:49:37.896Z,0
2022-10-16T03:50:37.242Z,0
2022-10-16T03:51:37.476Z,0
2022-10-16T03:52:37.225Z,0
2022-10-16T03:53:37.215Z,0
2022-10-16T03:54:37.178Z,0
2022-10-16T03:55:36.929Z,0
2022-10-16T03:56:37.425Z,0
2022-10-16T03:57:38.068Z,0
2022-10-16T03:58:37.143Z,0
2022-10-16T03:59:37.387Z,0
2022-10-16T04:00:37.394Z,0
2022-10-16T04:01:37.442Z,0
2022-10-16T04:02:36.769Z,0
2022-10-16T04:03:36.580Z,0
2022-10-16T04:04:37.338Z,0
2022-10-16T04:05:37.723Z,0
2022-10-16T04:06:37.316Z,0
2022-10-16T04:07:37.448Z,0
2022-10-16T04:08:37.050Z,0
2022-10-16T04:09:37.036Z,0
2022-10-16T04:10:36.523Z,0
2022-10-16T04:11:36.501Z,0
2022-10-16T04:12:37.259Z,0
2022-10-16T04:13:37.005Z,0
2022-10-16T04:14:37.237Z,0
2022-10-16T04:15:37.232Z,0
2022-10-16T04:16:37.499Z,0
2022-10-16T04:17:37.696Z,0
2022-10-16T04:18:37.466Z,0
2022-10-16T04:19:36.965Z,0
2022-10-16T04:20:37.198Z,0
2022-10-16T04:21:37.575Z,0
2022-10-16T04:22:36.754Z,0
2022-10-16T04:23:37.418Z,0
2022-10-16T04:24:37.434Z,0
2022-10-16T04:25:36.888Z,0
2022-10-16T04:26:37.130Z,0
2022-10-16T04:27:39.860Z,0
2022-10-16T04:28:37.487Z,0
2022-10-16T04:29:36.888Z,0
2022-10-16T04:30:36.867Z,0
2022-10-16T04:31:36.836Z,0
2022-10-16T04:32:36.881Z,0
2022-10-16T04:33:37.092Z,0
2022-10-16T04:34:37.083Z,0
2022-10-16T04:35:36.801Z,0
2022-10-16T04:36:38.473Z,0
2022-10-16T04:37:37.976Z,0
2022-10-16T04:38:37.290Z,0
2022-10-16T04:39:37.036Z,0
2022-10-16T04:40:36.765Z,0
2022-10-16T04:41:37.670Z,0
2022-10-16T04:42:37.671Z,0
2022-10-16T04:43:37.943Z,0
2022-10-16T04:44:37.383Z,0
2022-10-16T04:45:37.406Z,0
2022-10-16T04:46:37.123Z,0
2022-10-16T04:47:38.131Z,0
2022-10-16T04:48:37.606Z,0
2022-10-16T04:49:37.604Z,0
2022-10-16T04:50:37.342Z,0
2022-10-16T04:51:37.324Z,0
2022-10-16T04:52:41.062Z,0
2022-10-16T04:53:37.895Z,0
2022-10-16T04:54:37.831Z,0
2022-10-16T04:55:37.318Z,0
2022-10-16T04:56:37.803Z,0
2022-10-16T04:57:37.968Z,0
2022-10-16T04:58:37.537Z,0
2022-10-16T04:59:37.475Z,0
2022-10-16T05:00:37.986Z,0
2022-10-16T05:01:37.712Z,0
2022-10-16T05:02:38.042Z,0
2022-10-16T05:03:37.702Z,0
2022-10-16T05:04:37.693Z,0
2022-10-16T05:05:38.204Z,0
2022-10-16T05:06:37.414Z,0
2022-10-16T05:07:38.277Z,0
2022-10-16T05:08:37.966Z,0
2022-10-16T05:09:38.243Z,0
2022-10-16T05:10:37.900Z,0
2022-10-16T05:11:38.137Z,0
2022-10-16T05:12:37.614Z,0
2022-10-16T05:13:37.609Z,0
2022-10-16T05:14:37.609Z,0
2022-10-16T05:15:37.594Z,0
2022-10-16T05:16:37.842Z,0
2022-10-16T05:17:42.431Z,0
2022-10-16T05:18:37.570Z,0
2022-10-16T05:19:38.587Z,0
2022-10-16T05:20:37.305Z,0
2022-10-16T05:21:37.293Z,0
2022-10-16T05:22:37.795Z,0
2022-10-16T05:23:37.528Z,0
2022-10-16T05:24:37.592Z,0
2022-10-16T05:25:37.840Z,0
2022-10-16T05:26:38.121Z,0
2022-10-16T05:27:38.340Z,0
2022-10-16T05:28:37.850Z,0
2022-10-16T05:29:37.724Z,0
2022-10-16T05:30:36.959Z,0
2022-10-16T05:31:37.466Z,0
2022-10-16T05:32:37.450Z,0
2022-10-16T05:33:37.204Z,0
2022-10-16T05:34:37.682Z,0
2022-10-16T05:35:37.425Z,0
2022-10-16T05:36:37.441Z,0
2022-10-16T05:37:37.668Z,0
2022-10-16T05:38:37.642Z,0
2022-10-16T05:39:37.397Z,0
2022-10-16T05:40:37.691Z,0
2022-10-16T05:41:37.963Z,0
2022-10-16T05:42:37.102Z,0
2022-10-16T05:43:37.617Z,0
2022-10-16T05:44:38.456Z,0
2022-10-16T05:45:37.340Z,0
2022-10-16T05:46:37.325Z,0
2022-10-16T05:47:38.248Z,0
2022-10-16T05:48:37.579Z,0
2022-10-16T05:49:41.610Z,0
2022-10-16T05:50:37.289Z,0
2022-10-16T05:51:37.273Z,5
2022-10-16T05:52:37.291Z,5
2022-10-16T05:53:37.578Z,0
2022-10-16T05:54:36.997Z,0
2022-10-16T05:55:37.260Z,5
2022-10-16T05:56:37.580Z,5
2022-10-16T05:57:38.166Z,5
2022-10-16T05:58:36.980Z,5
2022-10-16T05:59:37.506Z,5
2022-10-16T06:00:37.273Z,10
2022-10-16T06:01:38.182Z,10
2022-10-16T06:02:38.168Z,15
2022-10-16T06:03:37.639Z,15
2022-10-16T06:04:37.641Z,20
2022-10-16T06:05:37.874Z,15
2022-10-16T06:06:37.863Z,10
2022-10-16T06:07:38.417Z,10
2022-10-16T06:08:37.593Z,15
2022-10-16T06:09:38.126Z,15
2022-10-16T06:10:37.367Z,15
2022-10-16T06:11:37.580Z,10
2022-10-16T06:12:37.623Z,10
2022-10-16T06:13:38.130Z,15
2022-10-16T06:14:37.522Z,15
2022-10-16T06:15:37.287Z,15
2022-10-16T06:16:37.583Z,20
2022-10-16T06:17:37.859Z,15
2022-10-16T06:18:37.519Z,15
2022-10-16T06:19:37.518Z,15
2022-10-16T06:20:37.705Z,15
2022-10-16T06:21:38.009Z,20
2022-10-16T06:22:37.479Z,30
2022-10-16T06:23:37.649Z,20
2022-10-16T06:24:37.738Z,20
2022-10-16T06:25:37.712Z,15
2022-10-16T06:26:37.447Z,15
2022-10-16T06:27:37.797Z,15
2022-10-16T06:28:37.832Z,15
2022-10-16T06:29:37.773Z,20
2022-10-16T06:30:37.681Z,15
2022-10-16T06:31:38.177Z,15
2022-10-16T06:32:37.925Z,20
2022-10-16T06:33:36.887Z,20
2022-10-16T06:34:39.474Z,20
2022-10-16T06:35:37.380Z,25
2022-10-16T06:36:37.361Z,30
2022-10-16T06:37:38.043Z,30
2022-10-16T06:38:37.869Z,35
2022-10-16T06:39:37.101Z,35
2022-10-16T06:40:37.391Z,45
2022-10-16T06:41:37.615Z,40
2022-10-16T06:42:38.119Z,40
2022-10-16T06:43:37.319Z,40
2022-10-16T06:44:37.875Z,55
2022-10-16T06:45:37.635Z,50
2022-10-16T06:46:37.292Z,60
2022-10-16T06:47:37.570Z,60
2022-10-16T06:48:37.027Z,85
2022-10-16T06:49:37.274Z,85
2022-10-16T06:50:37.260Z,80
2022-10-16T06:51:40.635Z,85
2022-10-16T06:52:38.310Z,75
2022-10-16T06:54:07.063Z,65
2022-10-16T06:54:46.351Z,75
2022-10-16T06:55:37.474Z,65
2022-10-16T06:56:37.620Z,60
2022-10-16T06:57:37.232Z,55
2022-10-16T06:58:37.195Z,70
2022-10-16T06:59:37.475Z,70
2022-10-16T07:00:37.531Z,60
2022-10-16T07:01:37.513Z,70
2022-10-16T07:02:38.326Z,60
2022-10-16T07:03:37.408Z,75
2022-10-16T07:04:37.158Z,85
2022-10-16T07:05:37.662Z,85
2022-10-16T07:06:37.385Z,80
2022-10-16T07:07:37.379Z,85
2022-10-16T07:08:37.130Z,90
2022-10-16T07:09:36.941Z,110
2022-10-16T07:10:37.141Z,125
2022-10-16T07:11:36.832Z,130
2022-10-16T07:12:37.329Z,125
2022-10-16T07:13:37.080Z,120
2022-10-16T07:14:37.585Z,115
2022-10-16T07:15:36.821Z,115
2022-10-16T07:16:37.691Z,115
2022-10-16T07:17:37.714Z,110
2022-10-16T07:18:37.652Z,100
2022-10-16T07:19:41.104Z,95
2022-10-16T07:20:37.300Z,85
2022-10-16T07:21:37.233Z,85
2022-10-16T07:22:37.442Z,90
2022-10-16T07:23:37.029Z,105
2022-10-16T07:24:37.270Z,120
2022-10-16T07:25:37.013Z,130
2022-10-16T07:26:37.527Z,140
2022-10-16T07:28:37.019Z,145
2022-10-16T07:29:37.237Z,155
2022-10-16T07:30:37.215Z,155
2022-10-16T07:31:37.034Z,145
2022-10-16T07:32:37.685Z,130
2022-10-16T07:33:37.542Z,120
2022-10-16T07:34:36.933Z,105
2022-10-16T07:35:37.186Z,105
2022-10-16T07:36:37.135Z,105
2022-10-16T07:37:37.681Z,110
2022-10-16T07:38:37.156Z,120
2022-10-16T07:39:36.646Z,125
2022-10-16T07:40:37.411Z,125
2022-10-16T07:41:37.142Z,120
2022-10-16T07:42:36.878Z,110
2022-10-16T07:43:37.148Z,105
2022-10-16T07:44:36.862Z,100
2022-10-16T07:45:36.355Z,100
2022-10-16T07:46:37.138Z,95
2022-10-16T07:47:37.444Z,90
2022-10-16T07:48:36.907Z,90
2022-10-16T07:49:37.443Z,80
2022-10-16T07:50:36.581Z,80
2022-10-16T07:51:36.839Z,95
2022-10-16T07:52:37.084Z,105
2022-10-16T07:53:36.553Z,110
2022-10-16T07:54:37.060Z,110
2022-10-16T07:55:36.799Z,110
2022-10-16T07:56:37.627Z,120
2022-10-16T07:57:37.700Z,125
2022-10-16T07:58:36.780Z,135
2022-10-16T07:59:36.758Z,140
2022-10-16T08:00:36.511Z,145
2022-10-16T08:01:37.208Z,150
2022-10-16T08:02:36.492Z,165
2022-10-16T08:03:36.484Z,180
2022-10-16T08:04:37.328Z,180
2022-10-16T08:05:37.078Z,180
2022-10-16T08:06:37.595Z,180
2022-10-16T08:07:36.668Z,170
2022-10-16T08:08:37.238Z,160
2022-10-16T08:09:36.967Z,155
2022-10-16T08:10:36.708Z,155
2022-10-16T08:11:36.675Z,160
2022-10-16T08:12:36.419Z,160
2022-10-16T08:13:37.080Z,155
2022-10-16T08:14:36.932Z,150
2022-10-16T08:15:36.916Z,145
2022-10-16T08:16:37.178Z,140
2022-10-16T08:17:37.207Z,140
2022-10-16T08:18:36.392Z,145
2022-10-16T08:19:36.379Z,155
2022-10-16T08:20:36.941Z,160
2022-10-16T08:21:36.965Z,165
2022-10-16T08:22:37.140Z,170
2022-10-16T08:23:36.392Z,170
2022-10-16T08:24:36.600Z,175
2022-10-16T08:25:36.355Z,175
2022-10-16T08:26:37.183Z,175
2022-10-16T08:27:37.334Z,175
2022-10-16T08:28:36.741Z,180
2022-10-16T08:29:37.095Z,180
2022-10-16T08:30:36.567Z,180
2022-10-16T08:31:36.884Z,185
2022-10-16T08:32:38.246Z,185
2022-10-16T08:33:36.554Z,185
2022-10-16T08:34:37.053Z,180
2022-10-16T08:35:36.309Z,180
2022-10-16T08:36:36.591Z,185
2022-10-16T08:37:36.878Z,190
2022-10-16T08:38:36.783Z,195
2022-10-16T08:39:36.505Z,195
2022-10-16T08:40:36.807Z,200
2022-10-16T08:41:37.014Z,200
2022-10-16T08:42:37.397Z,200
2022-10-16T08:43:36.746Z,195
2022-10-16T08:44:36.754Z,200
2022-10-16T08:45:36.740Z,205
2022-10-16T08:46:36.480Z,215
2022-10-16T08:47:36.738Z,220
2022-10-16T08:48:36.987Z,225
2022-10-16T08:49:36.793Z,230
2022-10-16T08:50:36.973Z,260
2022-10-16T08:51:37.093Z,270
2022-10-16T08:52:37.157Z,295
2022-10-16T08:53:37.026Z,300
2022-10-16T08:54:36.688Z,285
2022-10-16T08:55:36.432Z,275
2022-10-16T08:56:36.413Z,260
2022-10-16T08:57:36.418Z,240
2022-10-16T08:58:36.189Z,225
2022-10-16T08:59:36.400Z,220
2022-10-16T09:00:36.819Z,220
2022-10-16T09:01:36.765Z,215
2022-10-16T09:02:37.372Z,215
2022-10-16T09:03:36.641Z,225
2022-10-16T09:04:36.693Z,235
2022-10-16T09:05:36.366Z,235
2022-10-16T09:06:36.631Z,240
2022-10-16T09:07:36.615Z,240
2022-10-16T09:08:36.401Z,240
2022-10-16T09:09:36.944Z,240
2022-10-16T09:10:36.094Z,235
2022-10-16T09:11:35.836Z,230
2022-10-16T09:12:36.791Z,225
2022-10-16T09:13:35.816Z,230
2022-10-16T09:14:36.844Z,225
2022-10-16T09:15:37.754Z,230
2022-10-16T09:16:37.741Z,235
2022-10-16T09:17:37.609Z,240
2022-10-16T09:18:42.136Z,250
2022-10-16T09:19:37.023Z,240
2022-10-16T09:20:37.465Z,245
2022-10-16T09:21:37.467Z,250
2022-10-16T09:22:37.461Z,250
2022-10-16T09:23:37.454Z,250
2022-10-16T09:24:39.093Z,245
2022-10-16T09:25:37.498Z,245
2022-10-16T09:26:36.680Z,250
2022-10-16T09:27:37.917Z,240
2022-10-16T09:28:37.655Z,220
2022-10-16T09:29:37.167Z,190
2022-10-16T09:30:37.168Z,185
2022-10-16T09:31:37.411Z,185
2022-10-16T09:32:37.397Z,190
2022-10-16T09:33:37.412Z,205
2022-10-16T09:34:36.624Z,215
2022-10-16T09:35:37.777Z,205
2022-10-16T09:36:37.394Z,185
2022-10-16T09:37:38.086Z,180
2022-10-16T09:38:37.382Z,195
2022-10-16T09:39:37.366Z,235
2022-10-16T09:40:37.436Z,245
2022-10-16T09:41:37.410Z,255
2022-10-16T09:42:37.363Z,260
2022-10-16T09:43:36.846Z,240
2022-10-16T09:44:37.731Z,235
2022-10-16T09:45:37.363Z,220
2022-10-16T09:46:37.099Z,240
2022-10-16T09:47:37.813Z,230
2022-10-16T09:48:37.083Z,190
2022-10-16T09:49:37.076Z,160
2022-10-16T09:50:37.070Z,145
2022-10-16T09:51:37.338Z,125
2022-10-16T09:52:37.111Z,125
2022-10-16T09:53:37.080Z,120
2022-10-16T09:54:36.793Z,115
2022-10-16T09:55:37.039Z,115
2022-10-16T09:56:37.632Z,125
2022-10-16T09:57:38.248Z,140
2022-10-16T09:58:37.034Z,150
2022-10-16T09:59:37.312Z,150
2022-10-16T10:00:37.035Z,155
2022-10-16T10:01:36.777Z,160
2022-10-16T10:02:36.497Z,170
2022-10-16T10:03:37.017Z,180
2022-10-16T10:04:37.272Z,210
2022-10-16T10:05:36.998Z,210
2022-10-16T10:06:36.993Z,210
2022-10-16T10:07:37.737Z,210
2022-10-16T10:08:36.993Z,220
2022-10-16T10:09:36.719Z,245
2022-10-16T10:10:36.972Z,225
2022-10-16T10:11:36.717Z,215
2022-10-16T10:12:39.647Z,195
2022-10-16T10:13:37.260Z,180
2022-10-16T10:14:36.972Z,175
2022-10-16T10:15:36.718Z,180
2022-10-16T10:16:37.209Z,195
2022-10-16T10:17:37.013Z,220
2022-10-16T10:18:36.957Z,250
2022-10-16T10:19:40.089Z,255
2022-10-16T10:20:36.689Z,255
2022-10-16T10:21:37.440Z,260
2022-10-16T10:22:37.698Z,265
2022-10-16T10:23:37.204Z,260
2022-10-16T10:24:37.455Z,245
2022-10-16T10:25:37.181Z,235
2022-10-16T10:26:47.932Z,220
2022-10-16T10:27:36.654Z,215
2022-10-16T10:28:37.639Z,225
2022-10-16T10:29:36.960Z,230
2022-10-16T10:30:36.912Z,235
2022-10-16T10:31:37.196Z,240
2022-10-16T10:32:38.016Z,240
2022-10-16T10:33:37.393Z,240
2022-10-16T10:34:36.366Z,240
2022-10-16T10:35:37.151Z,235
2022-10-16T10:36:37.216Z,230
2022-10-16T10:37:37.120Z,230
2022-10-16T10:38:36.610Z,230
2022-10-16T10:39:36.887Z,235
2022-10-16T10:40:37.108Z,230
2022-10-16T10:41:40.948Z,230
2022-10-16T10:42:37.411Z,225
2022-10-16T10:43:36.665Z,205
2022-10-16T10:44:37.256Z,185
2022-10-16T10:45:37.474Z,175
2022-10-16T10:46:37.718Z,175
2022-10-16T10:47:36.916Z,165
2022-10-16T10:48:37.661Z,165
2022-10-16T10:49:37.156Z,160
2022-10-16T10:50:37.160Z,160
2022-10-16T10:51:36.638Z,150
2022-10-16T10:52:37.134Z,155
2022-10-16T10:53:36.630Z,155
2022-10-16T10:54:37.038Z,135
2022-10-16T10:55:36.893Z,140
2022-10-16T10:56:36.613Z,135
2022-10-16T10:58:42.522Z,140
2022-10-16T10:59:36.617Z,140
2022-10-16T11:00:37.195Z,160
2022-10-16T11:01:37.558Z,175
2022-10-16T11:02:37.851Z,160
2022-10-16T11:03:37.368Z,150
2022-10-16T11:04:36.590Z,165
2022-10-16T11:05:36.874Z,160
2022-10-16T11:06:37.208Z,155
2022-10-16T11:07:37.508Z,160
2022-10-16T11:08:36.565Z,175
2022-10-16T11:09:36.575Z,200
2022-10-16T11:10:37.347Z,200
2022-10-16T11:11:37.088Z,225
2022-10-16T11:12:36.565Z,250
2022-10-16T11:13:36.823Z,255
2022-10-16T11:14:36.823Z,280
2022-10-16T11:15:37.064Z,270
2022-10-16T11:16:36.880Z,230
2022-10-16T11:17:37.375Z,325
2022-10-16T11:18:37.049Z,295
2022-10-16T11:19:36.831Z,270
2022-10-16T11:20:36.535Z,285
2022-10-16T11:21:39.971Z,285
2022-10-16T11:22:36.795Z,265
2022-10-16T11:23:37.045Z,270
2022-10-16T11:24:37.042Z,240
2022-10-16T11:25:37.024Z,265
2022-10-16T11:26:36.795Z,260
2022-10-16T11:27:37.348Z,260
2022-10-16T11:28:41.248Z,280
2022-10-16T11:29:36.767Z,265
2022-10-16T11:30:36.767Z,245
2022-10-16T11:31:36.766Z,200
2022-10-16T11:32:37.099Z,225
2022-10-16T11:33:37.412Z,215
2022-10-16T11:34:42.668Z,200
2022-10-16T11:35:37.007Z,280
2022-10-16T11:36:36.528Z,265
2022-10-16T11:37:37.159Z,245
2022-10-16T11:38:36.754Z,240
2022-10-16T11:39:36.996Z,225
2022-10-16T11:40:36.768Z,210
2022-10-16T11:41:36.720Z,215
2022-10-16T11:42:36.723Z,185
2022-10-16T11:43:36.723Z,180
2022-10-16T11:44:36.998Z,180
2022-10-16T11:45:36.984Z,215
2022-10-16T11:46:47.561Z,250
2022-10-16T11:48:09.047Z,280
2022-10-16T11:48:36.980Z,285
2022-10-16T11:49:36.777Z,245
2022-10-16T11:50:36.965Z,235
2022-10-16T11:51:36.967Z,255
2022-10-16T11:52:36.964Z,200
2022-10-16T11:53:36.712Z,185
2022-10-16T11:54:36.702Z,185
2022-10-16T11:55:36.995Z,190
2022-10-16T11:56:36.707Z,195
2022-10-16T11:57:36.825Z,195
2022-10-16T11:58:36.948Z,175
2022-10-16T11:59:36.945Z,170
2022-10-16T12:00:36.712Z,170
2022-10-16T12:01:36.181Z,200
2022-10-16T12:02:37.097Z,215
2022-10-16T12:03:37.105Z,195
2022-10-16T12:04:36.935Z,190
2022-10-16T12:05:36.964Z,200
2022-10-16T12:06:36.685Z,220
2022-10-16T12:07:36.673Z,205
2022-10-16T12:08:37.317Z,200
2022-10-16T12:09:37.288Z,200
2022-10-16T12:11:37.321Z,195
2022-10-16T12:12:44.638Z,195
2022-10-16T12:13:37.016Z,195
2022-10-16T12:16:06.733Z,190
2022-10-16T12:16:37.273Z,190
2022-10-16T12:17:36.770Z,170
2022-10-16T12:18:36.793Z,165
2022-10-16T12:19:37.623Z,135
2022-10-16T12:20:36.754Z,140
2022-10-16T12:21:37.324Z,170
2022-10-16T12:22:41.768Z,190
2022-10-16T12:23:37.250Z,200
2022-10-16T12:24:36.997Z,215
2022-10-16T12:25:36.481Z,225
2022-10-16T12:26:36.723Z,225
2022-10-16T12:27:36.728Z,225
2022-10-16T12:28:37.485Z,215
2022-10-16T12:29:37.003Z,205
2022-10-16T12:30:42.746Z,190
2022-10-16T12:31:40.439Z,180
2022-10-16T12:32:56.466Z,165
2022-10-16T12:33:37.480Z,155
2022-10-16T12:34:37.982Z,145
2022-10-16T12:35:38.350Z,140
2022-10-16T12:36:37.970Z,135
2022-10-16T12:37:38.045Z,130
2022-10-16T12:38:37.710Z,125
2022-10-16T12:39:37.701Z,130
2022-10-16T12:40:37.958Z,130
2022-10-16T12:41:37.703Z,130
2022-10-16T12:42:38.313Z,130
2022-10-16T12:43:39.777Z,125
2022-10-16T12:44:37.428Z,115
2022-10-16T12:45:37.436Z,105
2022-10-16T12:46:37.421Z,100
2022-10-16T12:47:37.968Z,95
2022-10-16T12:49:21.755Z,85
2022-10-16T12:49:37.670Z,85
2022-10-16T12:50:37.684Z,85
2022-10-16T12:51:38.088Z,85
2022-10-16T12:52:39.041Z,85
2022-10-16T12:53:38.228Z,85
2022-10-16T12:54:37.659Z,85
2022-10-16T12:55:37.391Z,85
2022-10-16T12:56:38.242Z,90
2022-10-16T12:57:43.524Z,90
2022-10-16T12:58:37.891Z,90
2022-10-16T12:59:37.116Z,100
2022-10-16T13:00:37.493Z,110
2022-10-16T13:01:37.634Z,125
2022-10-16T13:02:37.873Z,130
2022-10-16T13:03:37.359Z,130
2022-10-16T13:04:37.362Z,130
2022-10-16T13:05:38.618Z,130
2022-10-16T13:06:37.360Z,130
2022-10-16T13:07:38.276Z,130
2022-10-16T13:08:37.850Z,125
2022-10-16T13:09:37.943Z,130
2022-10-16T13:10:38.108Z,130
2022-10-16T13:11:37.834Z,140
2022-10-16T13:12:37.590Z,150
2022-10-16T13:13:37.853Z,160
2022-10-16T13:14:37.869Z,165
2022-10-16T13:15:38.119Z,165
2022-10-16T13:16:37.834Z,155
2022-10-16T13:17:38.996Z,150
2022-10-16T13:18:37.577Z,150
2022-10-16T13:19:37.830Z,150
2022-10-16T13:20:37.807Z,150
2022-10-16T13:21:38.072Z,160
2022-10-16T13:22:37.821Z,170
2022-10-16T13:23:38.657Z,165
2022-10-16T13:24:37.308Z,155
2022-10-16T13:25:37.856Z,150
2022-10-16T13:26:38.044Z,155
2022-10-16T13:27:38.987Z,170
2022-10-16T13:28:37.885Z,175
2022-10-16T13:29:38.041Z,185
2022-10-16T13:30:40.021Z,200
2022-10-16T13:31:38.304Z,215
2022-10-16T13:32:37.802Z,215
2022-10-16T13:33:37.494Z,210
2022-10-16T13:34:37.753Z,195
2022-10-16T13:35:38.264Z,170
2022-10-16T13:36:37.991Z,155
2022-10-16T13:37:38.915Z,140
2022-10-16T13:38:37.760Z,130
2022-10-16T13:39:38.127Z,110
2022-10-16T13:40:37.762Z,100
2022-10-16T13:41:37.766Z,85
2022-10-16T13:42:37.481Z,80
2022-10-16T13:43:37.451Z,80
2022-10-16T13:44:37.706Z,80
2022-10-16T13:45:37.987Z,85
2022-10-16T13:46:38.234Z,90
2022-10-16T13:47:38.697Z,95
2022-10-16T13:48:37.689Z,100
2022-10-16T13:49:37.685Z,105
2022-10-16T13:50:38.207Z,110
2022-10-16T13:51:37.685Z,120
2022-10-16T13:52:38.626Z,125
2022-10-16T13:53:37.667Z,125
2022-10-16T13:54:38.189Z,125
2022-10-16T13:55:38.244Z,130
2022-10-16T13:56:37.900Z,130
2022-10-16T13:57:37.947Z,125
2022-10-16T13:58:38.151Z,120
2022-10-16T13:59:37.696Z,115
2022-10-16T14:01:41.850Z,100
2022-10-16T14:02:38.576Z,100
2022-10-16T14:03:37.356Z,95
2022-10-16T14:04:37.607Z,90
2022-10-16T14:05:37.624Z,85
2022-10-16T14:06:37.609Z,85
2022-10-16T14:07:38.115Z,90
2022-10-16T14:08:37.861Z,90
2022-10-16T14:09:37.877Z,80
2022-10-16T14:10:37.844Z,75
2022-10-16T14:11:38.189Z,70
2022-10-16T14:12:38.818Z,70
2022-10-16T14:13:38.211Z,65
2022-10-16T14:14:37.313Z,65
2022-10-16T14:15:37.821Z,70
2022-10-16T14:16:37.558Z,80
2022-10-16T14:17:37.040Z,95
2022-10-16T14:18:42.889Z,120
2022-10-16T14:19:37.548Z,120
2022-10-16T14:20:37.305Z,135
2022-10-16T14:21:37.801Z,95
2022-10-16T14:22:38.360Z,90
2022-10-16T14:23:37.552Z,95
2022-10-16T14:24:37.551Z,85
2022-10-16T14:25:37.530Z,75
2022-10-16T14:26:37.513Z,70
2022-10-16T14:27:37.578Z,65
2022-10-16T14:28:38.080Z,65
2022-10-16T14:29:38.098Z,60
2022-10-16T14:30:37.740Z,60
2022-10-16T14:31:37.515Z,60
2022-10-16T14:32:38.171Z,60
2022-10-16T14:33:37.484Z,60
2022-10-16T14:34:37.492Z,60
2022-10-16T14:35:37.463Z,60
2022-10-16T14:36:37.467Z,60
2022-10-16T14:37:39.200Z,60